sensor_id;sensor_type;location;lat;lon;timestamp;temperature;humidity
39865;DHT22;25538;48.392;9.976;2022-07-29T00:00:59;19.70;99.90
39865;DHT22;25538;48.392;9.976;2022-07-29T00:03:26;19.70;99.90
39865;DHT22;25538;48.392;9.976;2022-07-29T00:05:51;19.60;99.90
39865;DHT22;25538;48.392;9.976;2022-07-29T00:08:18;19.70;99.90
39865;DHT22;25538;48.392;9.976;2022-07-29T00:10:45;19.70;99.90
39865;DHT22;25538;48.392;9.976;2022-07-29T00:13:11;19.50;99.90
39865;DHT22;25538;48.392;9.976;2022-07-29T00:15:37;19.40;99.90
39865;DHT22;25538;48.392;9.976;2022-07-29T00:18:03;19.30;99.90
39865;DHT22;25538;48.392;9.976;2022-07-29T00:20:29;19.30;99.90
39865;DHT22;25538;48.392;9.976;2022-07-29T00:22:55;19.10;99.90
39865;DHT22;25538;48.392;9.976;2022-07-29T00:25:21;19.10;99.90
39865;DHT22;25538;48.392;9.976;2022-07-29T00:27:46;19.00;99.90
39865;DHT22;25538;48.392;9.976;2022-07-29T00:30:13;18.80;99.90
39865;DHT22;25538;48.392;9.976;2022-07-29T00:32:39;18.80;99.90
39865;DHT22;25538;48.392;9.976;2022-07-29T00:35:05;18.80;99.90
39865;DHT22;25538;48.392;9.976;2022-07-29T00:37:50;18.80;99.90
39865;DHT22;25538;48.392;9.976;2022-07-29T00:40:16;18.70;99.90
39865;DHT22;25538;48.392;9.976;2022-07-29T00:42:48;18.70;99.90
39865;DHT22;25538;48.392;9.976;2022-07-29T00:45:15;18.70;99.90
39865;DHT22;25538;48.392;9.976;2022-07-29T00:47:42;18.70;99.90
39865;DHT22;25538;48.392;9.976;2022-07-29T00:50:09;18.60;99.90
39865;DHT22;25538;48.392;9.976;2022-07-29T00:52:37;18.60;99.90
39865;DHT22;25538;48.392;9.976;2022-07-29T00:55:06;18.60;99.90
39865;DHT22;25538;48.392;9.976;2022-07-29T00:57:34;18.60;99.90
39865;DHT22;25538;48.392;9.976;2022-07-29T01:00:01;18.60;99.90
39865;DHT22;25538;48.392;9.976;2022-07-29T01:02:28;18.60;99.90
39865;DHT22;25538;48.392;9.976;2022-07-29T01:04:54;18.70;99.90
39865;DHT22;25538;48.392;9.976;2022-07-29T01:07:24;18.60;99.90
39865;DHT22;25538;48.392;9.976;2022-07-29T01:09:52;18.70;99.90
39865;DHT22;25538;48.392;9.976;2022-07-29T01:12:23;18.70;99.90
39865;DHT22;25538;48.392;9.976;2022-07-29T01:14:50;18.70;99.90
39865;DHT22;25538;48.392;9.976;2022-07-29T01:17:27;18.80;99.90
39865;DHT22;25538;48.392;9.976;2022-07-29T01:20:02;18.80;99.90
39865;DHT22;25538;48.392;9.976;2022-07-29T01:22:36;18.80;99.90
39865;DHT22;25538;48.392;9.976;2022-07-29T01:31:04;19.00;99.90
39865;DHT22;25538;48.392;9.976;2022-07-29T01:33:35;19.00;99.90
39865;DHT22;25538;48.392;9.976;2022-07-29T01:36:35;19.00;99.90
39865;DHT22;25538;48.392;9.976;2022-07-29T01:39:12;19.00;99.90
39865;DHT22;25538;48.392;9.976;2022-07-29T01:41:56;18.90;99.90
39865;DHT22;25538;48.392;9.976;2022-07-29T01:44:29;19.00;99.90
39865;DHT22;25538;48.392;9.976;2022-07-29T01:46:58;19.00;99.90
39865;DHT22;25538;48.392;9.976;2022-07-29T01:49:28;19.10;99.90
39865;DHT22;25538;48.392;9.976;2022-07-29T01:52:02;19.20;99.90
39865;DHT22;25538;48.392;9.976;2022-07-29T01:54:36;19.20;99.90
39865;DHT22;25538;48.392;9.976;2022-07-29T01:57:06;19.20;99.90
39865;DHT22;25538;48.392;9.976;2022-07-29T01:59:35;19.20;99.90
39865;DHT22;25538;48.392;9.976;2022-07-29T02:02:02;19.20;99.90
39865;DHT22;25538;48.392;9.976;2022-07-29T02:04:29;19.10;99.90
39865;DHT22;25538;48.392;9.976;2022-07-29T02:07:00;19.10;99.90
39865;DHT22;25538;48.392;9.976;2022-07-29T02:09:28;19.00;99.90
39865;DHT22;25538;48.392;9.976;2022-07-29T02:11:56;19.00;99.90
39865;DHT22;25538;48.392;9.976;2022-07-29T02:14:23;19.00;99.90
39865;DHT22;25538;48.392;9.976;2022-07-29T02:16:52;18.90;99.90
39865;DHT22;25538;48.392;9.976;2022-07-29T02:19:21;18.90;99.90
39865;DHT22;25538;48.392;9.976;2022-07-29T02:21:48;19.00;99.90
39865;DHT22;25538;48.392;9.976;2022-07-29T02:24:16;19.00;99.90
39865;DHT22;25538;48.392;9.976;2022-07-29T02:26:44;18.90;99.90
39865;DHT22;25538;48.392;9.976;2022-07-29T02:29:12;19.00;99.90
39865;DHT22;25538;48.392;9.976;2022-07-29T02:31:39;18.90;99.90
39865;DHT22;25538;48.392;9.976;2022-07-29T02:34:09;18.80;99.90
39865;DHT22;25538;48.392;9.976;2022-07-29T02:36:36;18.80;99.90
39865;DHT22;25538;48.392;9.976;2022-07-29T02:39:04;18.80;99.90
39865;DHT22;25538;48.392;9.976;2022-07-29T02:41:35;18.80;99.90
39865;DHT22;25538;48.392;9.976;2022-07-29T02:44:09;18.80;99.90
39865;DHT22;25538;48.392;9.976;2022-07-29T02:46:36;18.80;99.90
39865;DHT22;25538;48.392;9.976;2022-07-29T02:52:02;18.80;99.90
39865;DHT22;25538;48.392;9.976;2022-07-29T02:57:10;18.80;99.90
39865;DHT22;25538;48.392;9.976;2022-07-29T02:59:38;18.80;99.90
39865;DHT22;25538;48.392;9.976;2022-07-29T03:02:07;18.80;99.90
39865;DHT22;25538;48.392;9.976;2022-07-29T03:04:34;18.80;99.90
39865;DHT22;25538;48.392;9.976;2022-07-29T03:07:02;18.80;99.90
39865;DHT22;25538;48.392;9.976;2022-07-29T03:09:29;18.80;99.90
39865;DHT22;25538;48.392;9.976;2022-07-29T03:11:56;18.70;99.90
39865;DHT22;25538;48.392;9.976;2022-07-29T03:14:23;18.70;99.90
39865;DHT22;25538;48.392;9.976;2022-07-29T03:16:50;18.60;99.90
39865;DHT22;25538;48.392;9.976;2022-07-29T03:19:18;18.70;99.90
39865;DHT22;25538;48.392;9.976;2022-07-29T03:21:44;18.70;99.90
39865;DHT22;25538;48.392;9.976;2022-07-29T03:24:10;18.60;99.90
39865;DHT22;25538;48.392;9.976;2022-07-29T03:26:49;18.60;99.90
39865;DHT22;25538;48.392;9.976;2022-07-29T03:29:15;18.60;99.90
39865;DHT22;25538;48.392;9.976;2022-07-29T03:31:41;18.60;99.90
39865;DHT22;25538;48.392;9.976;2022-07-29T03:34:07;18.50;99.90
39865;DHT22;25538;48.392;9.976;2022-07-29T03:36:33;18.50;99.90
39865;DHT22;25538;48.392;9.976;2022-07-29T03:38:59;18.50;99.90
39865;DHT22;25538;48.392;9.976;2022-07-29T03:41:26;18.50;99.90
39865;DHT22;25538;48.392;9.976;2022-07-29T03:43:53;18.50;99.90
39865;DHT22;25538;48.392;9.976;2022-07-29T03:46:20;18.50;99.90
39865;DHT22;25538;48.392;9.976;2022-07-29T03:48:50;18.50;99.90
39865;DHT22;25538;48.392;9.976;2022-07-29T03:51:18;18.50;99.90
39865;DHT22;25538;48.392;9.976;2022-07-29T03:53:44;18.50;99.90
39865;DHT22;25538;48.392;9.976;2022-07-29T03:56:15;18.50;99.90
39865;DHT22;25538;48.392;9.976;2022-07-29T03:58:42;18.50;99.90
39865;DHT22;25538;48.392;9.976;2022-07-29T04:01:10;18.40;99.90
39865;DHT22;25538;48.392;9.976;2022-07-29T04:03:37;18.30;99.90
39865;DHT22;25538;48.392;9.976;2022-07-29T04:06:05;18.30;99.90
39865;DHT22;25538;48.392;9.976;2022-07-29T04:08:32;18.30;99.90
39865;DHT22;25538;48.392;9.976;2022-07-29T04:10:59;18.30;99.90
39865;DHT22;25538;48.392;9.976;2022-07-29T04:13:25;18.30;99.90
39865;DHT22;25538;48.392;9.976;2022-07-29T04:15:51;18.20;99.90
39865;DHT22;25538;48.392;9.976;2022-07-29T04:18:17;18.30;99.90
39865;DHT22;25538;48.392;9.976;2022-07-29T04:20:43;18.30;99.90
39865;DHT22;25538;48.392;9.976;2022-07-29T04:23:09;18.30;99.90
39865;DHT22;25538;48.392;9.976;2022-07-29T04:25:41;18.30;99.90
39865;DHT22;25538;48.392;9.976;2022-07-29T04:28:08;18.30;99.90
39865;DHT22;25538;48.392;9.976;2022-07-29T04:30:35;18.40;99.90
39865;DHT22;25538;48.392;9.976;2022-07-29T04:33:03;18.50;99.90
39865;DHT22;25538;48.392;9.976;2022-07-29T04:35:30;18.70;99.90
39865;DHT22;25538;48.392;9.976;2022-07-29T04:37:56;18.80;99.90
39865;DHT22;25538;48.392;9.976;2022-07-29T04:40:22;18.90;99.90
39865;DHT22;25538;48.392;9.976;2022-07-29T04:42:48;19.00;99.90
39865;DHT22;25538;48.392;9.976;2022-07-29T04:45:14;19.00;99.90
39865;DHT22;25538;48.392;9.976;2022-07-29T04:47:40;19.00;99.90
39865;DHT22;25538;48.392;9.976;2022-07-29T04:50:07;19.00;99.90
39865;DHT22;25538;48.392;9.976;2022-07-29T04:52:33;19.10;99.90
39865;DHT22;25538;48.392;9.976;2022-07-29T04:55:01;19.10;99.90
39865;DHT22;25538;48.392;9.976;2022-07-29T04:57:27;19.20;99.90
39865;DHT22;25538;48.392;9.976;2022-07-29T04:59:53;19.20;99.90
39865;DHT22;25538;48.392;9.976;2022-07-29T05:02:19;19.30;99.90
39865;DHT22;25538;48.392;9.976;2022-07-29T05:04:45;19.30;99.90
39865;DHT22;25538;48.392;9.976;2022-07-29T05:07:11;19.30;99.90
39865;DHT22;25538;48.392;9.976;2022-07-29T05:09:36;19.10;99.90
39865;DHT22;25538;48.392;9.976;2022-07-29T05:12:02;19.10;99.90
39865;DHT22;25538;48.392;9.976;2022-07-29T05:14:28;19.10;99.90
39865;DHT22;25538;48.392;9.976;2022-07-29T05:16:54;19.00;99.90
39865;DHT22;25538;48.392;9.976;2022-07-29T05:19:22;19.00;99.90
39865;DHT22;25538;48.392;9.976;2022-07-29T05:21:48;19.00;99.90
39865;DHT22;25538;48.392;9.976;2022-07-29T05:24:14;19.10;99.90
39865;DHT22;25538;48.392;9.976;2022-07-29T05:26:40;19.20;99.90
39865;DHT22;25538;48.392;9.976;2022-07-29T05:29:06;19.30;99.90
39865;DHT22;25538;48.392;9.976;2022-07-29T05:31:32;19.40;99.90
39865;DHT22;25538;48.392;9.976;2022-07-29T05:33:59;19.50;99.90
39865;DHT22;25538;48.392;9.976;2022-07-29T05:36:25;19.50;99.90
39865;DHT22;25538;48.392;9.976;2022-07-29T05:38:51;19.40;99.90
39865;DHT22;25538;48.392;9.976;2022-07-29T05:41:18;19.50;99.90
39865;DHT22;25538;48.392;9.976;2022-07-29T05:43:44;19.60;99.90
39865;DHT22;25538;48.392;9.976;2022-07-29T05:46:10;19.80;99.90
39865;DHT22;25538;48.392;9.976;2022-07-29T05:48:36;19.80;99.90
39865;DHT22;25538;48.392;9.976;2022-07-29T05:51:02;19.80;99.90
39865;DHT22;25538;48.392;9.976;2022-07-29T05:53:29;19.90;99.90
39865;DHT22;25538;48.392;9.976;2022-07-29T05:55:55;20.00;99.90
39865;DHT22;25538;48.392;9.976;2022-07-29T05:58:21;20.00;99.90
39865;DHT22;25538;48.392;9.976;2022-07-29T06:00:47;20.00;99.90
39865;DHT22;25538;48.392;9.976;2022-07-29T06:03:13;20.00;99.90
39865;DHT22;25538;48.392;9.976;2022-07-29T06:05:39;20.10;99.90
39865;DHT22;25538;48.392;9.976;2022-07-29T06:08:05;20.00;99.90
39865;DHT22;25538;48.392;9.976;2022-07-29T06:10:37;20.10;99.90
39865;DHT22;25538;48.392;9.976;2022-07-29T06:13:03;20.10;99.90
39865;DHT22;25538;48.392;9.976;2022-07-29T06:15:29;20.00;99.90
39865;DHT22;25538;48.392;9.976;2022-07-29T06:17:55;20.00;99.90
39865;DHT22;25538;48.392;9.976;2022-07-29T06:20:21;20.10;99.90
39865;DHT22;25538;48.392;9.976;2022-07-29T06:22:47;20.10;99.90
39865;DHT22;25538;48.392;9.976;2022-07-29T06:25:13;20.10;99.90
39865;DHT22;25538;48.392;9.976;2022-07-29T06:27:39;20.10;99.90
39865;DHT22;25538;48.392;9.976;2022-07-29T06:30:05;20.20;99.90
39865;DHT22;25538;48.392;9.976;2022-07-29T06:32:33;20.20;99.90
39865;DHT22;25538;48.392;9.976;2022-07-29T06:34:59;20.10;99.90
39865;DHT22;25538;48.392;9.976;2022-07-29T06:37:25;20.10;99.90
39865;DHT22;25538;48.392;9.976;2022-07-29T06:39:51;20.00;99.90
39865;DHT22;25538;48.392;9.976;2022-07-29T06:42:37;20.10;99.90
39865;DHT22;25538;48.392;9.976;2022-07-29T06:45:03;20.10;99.90
39865;DHT22;25538;48.392;9.976;2022-07-29T06:47:29;20.10;99.90
39865;DHT22;25538;48.392;9.976;2022-07-29T06:49:55;20.20;99.90
39865;DHT22;25538;48.392;9.976;2022-07-29T06:52:20;20.00;99.90
39865;DHT22;25538;48.392;9.976;2022-07-29T06:54:46;20.00;99.90
39865;DHT22;25538;48.392;9.976;2022-07-29T06:57:14;19.90;99.90
39865;DHT22;25538;48.392;9.976;2022-07-29T06:59:40;19.90;99.90
39865;DHT22;25538;48.392;9.976;2022-07-29T07:02:06;20.00;99.90
39865;DHT22;25538;48.392;9.976;2022-07-29T07:04:32;20.10;99.90
39865;DHT22;25538;48.392;9.976;2022-07-29T07:06:58;20.10;99.90
39865;DHT22;25538;48.392;9.976;2022-07-29T07:09:24;20.20;99.90
39865;DHT22;25538;48.392;9.976;2022-07-29T07:11:50;20.20;99.90
39865;DHT22;25538;48.392;9.976;2022-07-29T07:14:16;20.20;99.90
39865;DHT22;25538;48.392;9.976;2022-07-29T07:16:42;20.20;99.90
39865;DHT22;25538;48.392;9.976;2022-07-29T07:19:08;20.40;99.90
39865;DHT22;25538;48.392;9.976;2022-07-29T07:21:34;20.50;99.90
39865;DHT22;25538;48.392;9.976;2022-07-29T07:24:01;20.60;99.90
39865;DHT22;25538;48.392;9.976;2022-07-29T07:26:27;20.70;99.90
39865;DHT22;25538;48.392;9.976;2022-07-29T07:28:53;20.90;99.90
39865;DHT22;25538;48.392;9.976;2022-07-29T07:31:19;21.00;99.90
39865;DHT22;25538;48.392;9.976;2022-07-29T07:33:45;21.20;99.90
39865;DHT22;25538;48.392;9.976;2022-07-29T07:36:11;21.20;99.90
39865;DHT22;25538;48.392;9.976;2022-07-29T07:38:37;21.30;99.90
39865;DHT22;25538;48.392;9.976;2022-07-29T07:41:03;21.20;99.90
39865;DHT22;25538;48.392;9.976;2022-07-29T07:43:29;21.20;99.90
39865;DHT22;25538;48.392;9.976;2022-07-29T07:45:55;21.20;99.90
39865;DHT22;25538;48.392;9.976;2022-07-29T07:48:21;21.30;99.90
39865;DHT22;25538;48.392;9.976;2022-07-29T07:50:47;21.40;99.90
39865;DHT22;25538;48.392;9.976;2022-07-29T07:53:14;21.30;99.90
39865;DHT22;25538;48.392;9.976;2022-07-29T07:55:41;21.40;99.90
39865;DHT22;25538;48.392;9.976;2022-07-29T07:58:07;21.40;99.90
39865;DHT22;25538;48.392;9.976;2022-07-29T08:00:33;21.40;99.90
39865;DHT22;25538;48.392;9.976;2022-07-29T08:02:59;21.40;99.90
39865;DHT22;25538;48.392;9.976;2022-07-29T08:05:25;21.50;99.90
39865;DHT22;25538;48.392;9.976;2022-07-29T08:07:51;21.70;99.90
39865;DHT22;25538;48.392;9.976;2022-07-29T08:10:18;21.90;99.90
39865;DHT22;25538;48.392;9.976;2022-07-29T08:13:06;22.10;99.90
39865;DHT22;25538;48.392;9.976;2022-07-29T08:15:32;22.40;99.90
39865;DHT22;25538;48.392;9.976;2022-07-29T08:17:58;22.50;99.90
39865;DHT22;25538;48.392;9.976;2022-07-29T08:20:24;22.80;99.90
39865;DHT22;25538;48.392;9.976;2022-07-29T08:22:52;22.80;99.90
39865;DHT22;25538;48.392;9.976;2022-07-29T08:25:19;23.00;99.90
39865;DHT22;25538;48.392;9.976;2022-07-29T08:27:46;23.20;99.90
39865;DHT22;25538;48.392;9.976;2022-07-29T08:30:13;23.60;99.90
39865;DHT22;25538;48.392;9.976;2022-07-29T08:32:40;23.80;99.90
39865;DHT22;25538;48.392;9.976;2022-07-29T08:35:06;23.60;99.90
39865;DHT22;25538;48.392;9.976;2022-07-29T08:37:32;24.10;99.90
39865;DHT22;25538;48.392;9.976;2022-07-29T08:39:58;24.60;99.90
39865;DHT22;25538;48.392;9.976;2022-07-29T08:42:24;24.60;99.90
39865;DHT22;25538;48.392;9.976;2022-07-29T08:44:50;24.40;99.90
39865;DHT22;25538;48.392;9.976;2022-07-29T08:47:16;24.30;99.90
39865;DHT22;25538;48.392;9.976;2022-07-29T08:49:43;24.40;99.90
39865;DHT22;25538;48.392;9.976;2022-07-29T08:52:11;24.40;99.90
39865;DHT22;25538;48.392;9.976;2022-07-29T08:54:40;24.30;99.90
39865;DHT22;25538;48.392;9.976;2022-07-29T08:57:10;24.50;99.90
39865;DHT22;25538;48.392;9.976;2022-07-29T08:59:40;24.90;99.90
39865;DHT22;25538;48.392;9.976;2022-07-29T09:02:17;25.10;99.90
39865;DHT22;25538;48.392;9.976;2022-07-29T09:04:44;25.50;99.90
39865;DHT22;25538;48.392;9.976;2022-07-29T09:07:15;25.80;99.90
39865;DHT22;25538;48.392;9.976;2022-07-29T09:09:42;26.50;99.90
39865;DHT22;25538;48.392;9.976;2022-07-29T09:12:09;26.90;99.90
39865;DHT22;25538;48.392;9.976;2022-07-29T09:14:38;26.70;99.90
39865;DHT22;25538;48.392;9.976;2022-07-29T09:17:04;26.70;99.90
39865;DHT22;25538;48.392;9.976;2022-07-29T09:19:33;26.20;99.90
39865;DHT22;25538;48.392;9.976;2022-07-29T09:22:03;26.40;99.90
39865;DHT22;25538;48.392;9.976;2022-07-29T09:24:44;26.70;99.90
39865;DHT22;25538;48.392;9.976;2022-07-29T09:27:25;26.80;99.90
39865;DHT22;25538;48.392;9.976;2022-07-29T09:30:09;27.10;99.90
39865;DHT22;25538;48.392;9.976;2022-07-29T09:32:55;27.70;99.90
39865;DHT22;25538;48.392;9.976;2022-07-29T09:35:23;28.50;99.90
39865;DHT22;25538;48.392;9.976;2022-07-29T09:37:49;28.90;99.90
39865;DHT22;25538;48.392;9.976;2022-07-29T09:40:21;29.00;99.90
39865;DHT22;25538;48.392;9.976;2022-07-29T09:42:48;28.90;99.90
39865;DHT22;25538;48.392;9.976;2022-07-29T09:45:29;28.30;99.90
39865;DHT22;25538;48.392;9.976;2022-07-29T09:47:56;28.30;99.90
39865;DHT22;25538;48.392;9.976;2022-07-29T09:50:35;28.30;99.90
39865;DHT22;25538;48.392;9.976;2022-07-29T09:53:01;28.20;99.90
39865;DHT22;25538;48.392;9.976;2022-07-29T09:55:27;28.70;99.90
39865;DHT22;25538;48.392;9.976;2022-07-29T09:57:53;28.50;99.90
39865;DHT22;25538;48.392;9.976;2022-07-29T10:00:20;27.90;99.90
39865;DHT22;25538;48.392;9.976;2022-07-29T10:02:48;27.70;99.90
39865;DHT22;25538;48.392;9.976;2022-07-29T10:05:26;27.80;99.90
39865;DHT22;25538;48.392;9.976;2022-07-29T10:07:56;28.30;99.90
39865;DHT22;25538;48.392;9.976;2022-07-29T10:10:30;28.60;99.90
39865;DHT22;25538;48.392;9.976;2022-07-29T10:12:58;29.10;99.90
39865;DHT22;25538;48.392;9.976;2022-07-29T10:15:26;29.90;99.90
39865;DHT22;25538;48.392;9.976;2022-07-29T10:17:54;30.50;99.90
39865;DHT22;25538;48.392;9.976;2022-07-29T10:20:21;30.50;99.90
39865;DHT22;25538;48.392;9.976;2022-07-29T10:22:50;30.70;99.90
39865;DHT22;25538;48.392;9.976;2022-07-29T10:25:17;30.70;99.90
39865;DHT22;25538;48.392;9.976;2022-07-29T10:27:45;29.90;99.90
39865;DHT22;25538;48.392;9.976;2022-07-29T10:30:12;28.40;99.90
39865;DHT22;25538;48.392;9.976;2022-07-29T10:35:40;26.10;99.90
39865;DHT22;25538;48.392;9.976;2022-07-29T10:41:02;25.40;99.90
39865;DHT22;25538;48.392;9.976;2022-07-29T10:43:51;25.30;99.90
39865;DHT22;25538;48.392;9.976;2022-07-29T10:46:18;24.90;99.90
39865;DHT22;25538;48.392;9.976;2022-07-29T10:49:06;24.70;99.90
39865;DHT22;25538;48.392;9.976;2022-07-29T11:04:59;25.40;99.90
39865;DHT22;25538;48.392;9.976;2022-07-29T11:07:26;25.40;99.90
39865;DHT22;25538;48.392;9.976;2022-07-29T11:15:13;25.60;99.90
39865;DHT22;25538;48.392;9.976;2022-07-29T11:20:31;25.70;99.90
39865;DHT22;25538;48.392;9.976;2022-07-29T11:22:57;25.60;99.90
39865;DHT22;25538;48.392;9.976;2022-07-29T11:25:24;25.80;99.90
39865;DHT22;25538;48.392;9.976;2022-07-29T11:27:52;25.90;99.90
39865;DHT22;25538;48.392;9.976;2022-07-29T11:30:19;26.20;99.90
39865;DHT22;25538;48.392;9.976;2022-07-29T11:32:46;26.10;99.90
39865;DHT22;25538;48.392;9.976;2022-07-29T11:35:23;26.10;99.90
39865;DHT22;25538;48.392;9.976;2022-07-29T11:43:59;25.40;99.90
39865;DHT22;25538;48.392;9.976;2022-07-29T11:46:47;25.30;99.90
39865;DHT22;25538;48.392;9.976;2022-07-29T11:49:26;25.10;99.90
39865;DHT22;25538;48.392;9.976;2022-07-29T11:51:54;25.00;99.90
39865;DHT22;25538;48.392;9.976;2022-07-29T11:54:31;25.10;99.90
39865;DHT22;25538;48.392;9.976;2022-07-29T11:56:59;25.20;99.90
39865;DHT22;25538;48.392;9.976;2022-07-29T11:59:25;25.30;99.90
39865;DHT22;25538;48.392;9.976;2022-07-29T12:01:52;25.40;99.90
39865;DHT22;25538;48.392;9.976;2022-07-29T12:04:19;25.50;99.90
39865;DHT22;25538;48.392;9.976;2022-07-29T12:06:52;25.60;99.90
39865;DHT22;25538;48.392;9.976;2022-07-29T12:09:20;25.70;99.90
39865;DHT22;25538;48.392;9.976;2022-07-29T12:11:47;25.80;99.90
39865;DHT22;25538;48.392;9.976;2022-07-29T12:14:32;26.20;99.90
39865;DHT22;25538;48.392;9.976;2022-07-29T12:16:59;26.60;99.90
39865;DHT22;25538;48.392;9.976;2022-07-29T12:19:28;27.20;99.90
39865;DHT22;25538;48.392;9.976;2022-07-29T12:21:55;27.50;99.90
39865;DHT22;25538;48.392;9.976;2022-07-29T12:24:24;27.70;99.90
39865;DHT22;25538;48.392;9.976;2022-07-29T12:29:16;28.10;99.90
39865;DHT22;25538;48.392;9.976;2022-07-29T12:31:43;29.70;99.90
39865;DHT22;25538;48.392;9.976;2022-07-29T12:34:14;31.50;96.00
39865;DHT22;25538;48.392;9.976;2022-07-29T12:36:42;33.40;92.00
39865;DHT22;25538;48.392;9.976;2022-07-29T12:39:09;35.10;82.20
39865;DHT22;25538;48.392;9.976;2022-07-29T12:41:36;35.90;71.30
39865;DHT22;25538;48.392;9.976;2022-07-29T12:44:02;35.20;69.90
39865;DHT22;25538;48.392;9.976;2022-07-29T12:46:28;35.00;73.40
39865;DHT22;25538;48.392;9.976;2022-07-29T12:48:54;34.90;73.80
39865;DHT22;25538;48.392;9.976;2022-07-29T12:51:36;34.10;73.60
39865;DHT22;25538;48.392;9.976;2022-07-29T12:54:08;32.80;73.10
39865;DHT22;25538;48.392;9.976;2022-07-29T12:56:37;31.50;75.60
39865;DHT22;25538;48.392;9.976;2022-07-29T12:59:18;31.00;79.80
39865;DHT22;25538;48.392;9.976;2022-07-29T13:01:46;32.00;72.30
39865;DHT22;25538;48.392;9.976;2022-07-29T13:04:33;33.30;68.30
39865;DHT22;25538;48.392;9.976;2022-07-29T13:07:06;33.90;65.40
39865;DHT22;25538;48.392;9.976;2022-07-29T13:09:50;34.40;63.10
39865;DHT22;25538;48.392;9.976;2022-07-29T13:12:16;35.30;61.20
39865;DHT22;25538;48.392;9.976;2022-07-29T13:14:45;36.20;58.00
39865;DHT22;25538;48.392;9.976;2022-07-29T13:17:15;36.80;55.00
39865;DHT22;25538;48.392;9.976;2022-07-29T13:19:42;35.90;54.70
39865;DHT22;25538;48.392;9.976;2022-07-29T13:22:13;35.10;53.10
39865;DHT22;25538;48.392;9.976;2022-07-29T13:24:56;33.60;56.00
39865;DHT22;25538;48.392;9.976;2022-07-29T13:27:25;32.70;58.20
39865;DHT22;25538;48.392;9.976;2022-07-29T13:29:51;32.40;59.80
39865;DHT22;25538;48.392;9.976;2022-07-29T13:32:19;32.10;63.90
39865;DHT22;25538;48.392;9.976;2022-07-29T13:34:45;31.20;67.10
39865;DHT22;25538;48.392;9.976;2022-07-29T13:37:12;29.60;72.10
39865;DHT22;25538;48.392;9.976;2022-07-29T13:39:39;27.50;74.70
39865;DHT22;25538;48.392;9.976;2022-07-29T13:42:06;26.00;81.40
39865;DHT22;25538;48.392;9.976;2022-07-29T13:44:32;25.20;99.90
39865;DHT22;25538;48.392;9.976;2022-07-29T13:46:58;23.30;99.90
39865;DHT22;25538;48.392;9.976;2022-07-29T13:49:25;21.70;99.90
39865;DHT22;25538;48.392;9.976;2022-07-29T13:51:51;21.00;99.90
39865;DHT22;25538;48.392;9.976;2022-07-29T13:54:17;20.70;99.90
39865;DHT22;25538;48.392;9.976;2022-07-29T13:56:43;20.60;99.90
39865;DHT22;25538;48.392;9.976;2022-07-29T13:59:09;20.50;99.90
39865;DHT22;25538;48.392;9.976;2022-07-29T14:01:35;20.50;99.90
39865;DHT22;25538;48.392;9.976;2022-07-29T14:04:02;20.60;99.90
39865;DHT22;25538;48.392;9.976;2022-07-29T14:06:28;20.10;99.90
39865;DHT22;25538;48.392;9.976;2022-07-29T14:08:54;20.00;99.90
39865;DHT22;25538;48.392;9.976;2022-07-29T14:11:20;20.10;99.90
39865;DHT22;25538;48.392;9.976;2022-07-29T14:13:46;20.00;99.90
39865;DHT22;25538;48.392;9.976;2022-07-29T14:16:12;20.00;99.90
39865;DHT22;25538;48.392;9.976;2022-07-29T14:18:38;20.00;99.90
39865;DHT22;25538;48.392;9.976;2022-07-29T14:21:04;20.00;99.90
39865;DHT22;25538;48.392;9.976;2022-07-29T14:23:30;20.10;99.90
39865;DHT22;25538;48.392;9.976;2022-07-29T14:25:56;20.10;99.90
39865;DHT22;25538;48.392;9.976;2022-07-29T14:28:22;20.00;99.90
39865;DHT22;25538;48.392;9.976;2022-07-29T14:30:48;20.00;99.90
39865;DHT22;25538;48.392;9.976;2022-07-29T14:33:14;20.20;99.90
39865;DHT22;25538;48.392;9.976;2022-07-29T14:35:40;20.40;99.90
39865;DHT22;25538;48.392;9.976;2022-07-29T14:38:05;20.50;99.90
39865;DHT22;25538;48.392;9.976;2022-07-29T14:40:31;20.40;99.90
39865;DHT22;25538;48.392;9.976;2022-07-29T14:42:57;20.40;99.90
39865;DHT22;25538;48.392;9.976;2022-07-29T14:45:23;20.60;99.90
39865;DHT22;25538;48.392;9.976;2022-07-29T14:47:49;20.70;99.90
39865;DHT22;25538;48.392;9.976;2022-07-29T14:50:16;20.60;99.90
39865;DHT22;25538;48.392;9.976;2022-07-29T14:52:42;20.50;99.90
39865;DHT22;25538;48.392;9.976;2022-07-29T14:55:08;20.40;99.90
39865;DHT22;25538;48.392;9.976;2022-07-29T14:57:34;20.20;99.90
39865;DHT22;25538;48.392;9.976;2022-07-29T15:00:01;20.00;99.90
39865;DHT22;25538;48.392;9.976;2022-07-29T15:02:27;19.80;99.90
39865;DHT22;25538;48.392;9.976;2022-07-29T15:04:53;19.50;99.90
39865;DHT22;25538;48.392;9.976;2022-07-29T15:07:18;19.20;99.90
39865;DHT22;25538;48.392;9.976;2022-07-29T15:09:44;18.90;99.90
39865;DHT22;25538;48.392;9.976;2022-07-29T15:12:11;18.90;99.90
39865;DHT22;25538;48.392;9.976;2022-07-29T15:14:36;19.00;99.90
39865;DHT22;25538;48.392;9.976;2022-07-29T15:17:03;19.30;99.90
39865;DHT22;25538;48.392;9.976;2022-07-29T15:19:29;19.40;99.90
39865;DHT22;25538;48.392;9.976;2022-07-29T15:21:54;19.40;99.90
39865;DHT22;25538;48.392;9.976;2022-07-29T15:24:20;19.30;99.90
39865;DHT22;25538;48.392;9.976;2022-07-29T15:26:46;19.30;99.90
39865;DHT22;25538;48.392;9.976;2022-07-29T15:29:13;19.30;99.90
39865;DHT22;25538;48.392;9.976;2022-07-29T15:31:39;19.40;99.90
39865;DHT22;25538;48.392;9.976;2022-07-29T15:34:05;19.50;99.90
39865;DHT22;25538;48.392;9.976;2022-07-29T15:36:31;19.40;99.90
39865;DHT22;25538;48.392;9.976;2022-07-29T15:38:57;19.20;99.90
39865;DHT22;25538;48.392;9.976;2022-07-29T15:41:23;18.90;99.90
39865;DHT22;25538;48.392;9.976;2022-07-29T15:43:48;19.00;99.90
39865;DHT22;25538;48.392;9.976;2022-07-29T15:46:17;19.10;99.90
39865;DHT22;25538;48.392;9.976;2022-07-29T15:49:03;19.30;99.90
39865;DHT22;25538;48.392;9.976;2022-07-29T15:51:30;19.40;99.90
39865;DHT22;25538;48.392;9.976;2022-07-29T15:53:56;19.30;99.90
39865;DHT22;25538;48.392;9.976;2022-07-29T15:56:22;19.10;99.90
39865;DHT22;25538;48.392;9.976;2022-07-29T15:58:49;18.90;99.90
39865;DHT22;25538;48.392;9.976;2022-07-29T16:01:14;18.90;99.90
39865;DHT22;25538;48.392;9.976;2022-07-29T16:03:40;19.10;99.90
39865;DHT22;25538;48.392;9.976;2022-07-29T16:06:06;19.10;99.90
39865;DHT22;25538;48.392;9.976;2022-07-29T16:08:32;19.10;99.90
39865;DHT22;25538;48.392;9.976;2022-07-29T16:10:58;19.10;99.90
39865;DHT22;25538;48.392;9.976;2022-07-29T16:13:24;19.20;99.90
39865;DHT22;25538;48.392;9.976;2022-07-29T16:15:50;19.30;99.90
39865;DHT22;25538;48.392;9.976;2022-07-29T16:18:16;19.40;99.90
39865;DHT22;25538;48.392;9.976;2022-07-29T16:20:42;19.40;99.90
39865;DHT22;25538;48.392;9.976;2022-07-29T16:23:08;19.40;99.90